Time;durP1;ratioP1;P1;durP2;ratioP2;P2;SDS_P1;SDS_P2;PMS_P1;PMS_P2;Temp;Humidity;BMP_temperature;BMP_pressure;BME280_temperature;BME280_humidity;BME280_pressure;Samples;Min_cycle;Max_cycle;Signal;HPM_P1;HPM_P2
2021/05/03 00:02:22;;;;;;;3.57;3.30;;;;;;;2.80;83.31;100818.81;5043879;28;20243;-76
2021/05/03 00:04:48;;;;;;;3.37;3.07;;;;;;;2.78;83.80;100816.22;5045483;28;20622;-74
2021/05/03 00:07:14;;;;;;;3.27;2.97;;;;;;;2.74;82.86;100822.16;5047909;28;20303;-76
2021/05/03 00:09:40;;;;;;;4.03;3.53;;;;;;;2.72;83.46;100815.25;5046629;28;20739;-75
2021/05/03 00:12:07;;;;;;;3.57;3.37;;;;;;;2.66;83.11;100816.00;5047632;28;20213;-77
2021/05/03 00:14:33;;;;;;;4.53;3.27;;;;;;;2.70;83.32;100819.50;5046482;28;20336;-76
2021/05/03 00:16:59;;;;;;;3.73;3.03;;;;;;;2.68;83.10;100816.88;5047251;28;20727;-76
2021/05/03 00:19:26;;;;;;;3.70;3.43;;;;;;;2.63;83.34;100815.06;5046582;28;20252;-76
2021/05/03 00:21:51;;;;;;;4.27;3.97;;;;;;;2.59;83.20;100814.97;5046895;28;20326;-76
2021/05/03 00:24:17;;;;;;;4.43;3.40;;;;;;;2.72;83.14;100810.94;5047678;28;20667;-77
2021/05/03 00:26:43;;;;;;;3.23;3.03;;;;;;;2.71;83.11;100808.34;5047187;28;20234;-76
2021/05/03 00:29:09;;;;;;;4.30;3.30;;;;;;;2.68;82.52;100811.72;5047569;28;20262;-75
2021/05/03 00:31:35;;;;;;;3.40;3.10;;;;;;;2.80;83.06;100807.66;5047795;28;20288;-76
2021/05/03 00:34:03;;;;;;;3.70;3.30;;;;;;;2.64;83.00;100811.66;5046113;28;20209;-77
2021/05/03 00:36:29;;;;;;;3.97;3.23;;;;;;;2.66;82.76;100805.69;5046849;28;20228;-75
2021/05/03 00:38:55;;;;;;;4.90;3.43;;;;;;;2.73;82.26;100816.97;5046580;28;20324;-76
2021/05/03 00:41:21;;;;;;;3.70;3.40;;;;;;;2.68;82.97;100819.47;5046939;28;20218;-76
2021/05/03 00:43:47;;;;;;;3.67;2.90;;;;;;;2.66;82.80;100820.28;5046564;28;20221;-75
2021/05/03 00:46:17;;;;;;;3.30;3.10;;;;;;;2.67;83.54;100822.88;5046784;28;20216;-77
2021/05/03 00:48:43;;;;;;;5.60;3.10;;;;;;;2.62;83.02;100819.34;5045994;28;20208;-76
2021/05/03 00:51:10;;;;;;;5.17;3.73;;;;;;;2.66;82.77;100833.16;5045736;28;20205;-76
2021/05/03 00:53:35;;;;;;;3.00;2.70;;;;;;;2.69;83.18;100823.75;5046119;28;21015;-74
2021/05/03 00:56:01;;;;;;;3.77;3.37;;;;;;;2.62;82.65;100824.50;5046260;28;20258;-76
2021/05/03 00:58:28;;;;;;;4.87;3.33;;;;;;;2.59;84.29;100827.00;5046098;28;20723;-74
2021/05/03 01:00:54;;;;;;;3.33;3.10;;;;;;;2.64;83.90;100832.28;5046848;28;20564;-76
2021/05/03 01:03:20;;;;;;;3.23;2.97;;;;;;;2.62;84.20;100823.59;5045980;28;20215;-76
2021/05/03 01:05:46;;;;;;;3.63;3.33;;;;;;;2.71;84.60;100831.53;5045705;28;20695;-74
2021/05/03 01:08:12;;;;;;;3.70;3.40;;;;;;;2.72;84.48;100833.28;5046358;28;20675;-75
2021/05/03 01:10:38;;;;;;;3.70;3.40;;;;;;;2.70;84.23;100829.81;5046148;28;20590;-76
2021/05/03 01:13:04;;;;;;;4.10;3.10;;;;;;;2.72;83.48;100834.16;5046037;28;20209;-74
2021/05/03 01:15:30;;;;;;;3.40;3.10;;;;;;;2.78;84.29;100826.53;5044736;28;20288;-76
2021/05/03 01:17:58;;;;;;;3.53;3.23;;;;;;;2.73;83.88;100830.72;5045809;28;20315;-76
2021/05/03 01:20:25;;;;;;;3.60;3.30;;;;;;;2.73;83.68;100833.28;5045206;28;20331;-75
2021/05/03 01:22:55;;;;;;;4.63;3.47;;;;;;;2.81;83.99;100833.44;5045778;28;20205;-77
2021/05/03 01:25:21;;;;;;;3.57;2.90;;;;;;;2.81;84.02;100832.56;5046645;28;20205;-77
2021/05/03 01:27:48;;;;;;;3.07;2.70;;;;;;;2.82;83.34;100835.19;5045749;28;20715;-76
2021/05/03 01:30:16;;;;;;;5.60;3.30;;;;;;;2.86;84.30;100836.13;5045676;28;20483;-75
2021/05/03 01:32:41;;;;;;;3.43;3.13;;;;;;;2.91;83.90;100832.75;5044848;28;20236;-76
2021/05/03 01:35:09;;;;;;;4.43;2.80;;;;;;;2.72;84.42;100835.88;5046507;28;20637;-76
2021/05/03 01:37:35;;;;;;;3.50;3.20;;;;;;;2.73;84.09;100829.84;5045736;28;20257;-76
2021/05/03 01:40:04;;;;;;;3.40;3.13;;;;;;;2.72;84.45;100836.72;5045466;28;20266;-77
2021/05/03 01:42:30;;;;;;;2.90;2.70;;;;;;;2.80;84.94;100830.84;5045603;28;20262;-77
2021/05/03 01:44:58;;;;;;;3.27;3.00;;;;;;;2.75;83.85;100833.31;5045139;28;20214;-77
2021/05/03 01:47:25;;;;;;;2.93;2.63;;;;;;;2.65;83.31;100834.84;5044985;28;20278;-76
2021/05/03 01:49:50;;;;;;;3.10;2.80;;;;;;;2.64;83.25;100838.28;5045386;28;20723;-75
2021/05/03 01:52:16;;;;;;;3.57;3.00;;;;;;;2.58;84.10;100844.19;5045562;28;20213;-77
2021/05/03 01:54:42;;;;;;;3.57;2.80;;;;;;;2.50;83.68;100839.72;5045008;28;20453;-75
2021/05/03 01:57:09;;;;;;;3.20;2.90;;;;;;;2.45;83.10;100847.34;5045007;28;20228;-76
2021/05/03 01:59:35;;;;;;;3.57;3.27;;;;;;;2.45;83.83;100846.47;5044836;28;20800;-76
2021/05/03 02:02:01;;;;;;;3.47;3.17;;;;;;;2.39;84.29;100847.22;5045341;28;20303;-77
2021/05/03 02:04:27;;;;;;;4.30;3.47;;;;;;;2.27;84.25;100847.81;5045214;28;20695;-76
2021/05/03 02:06:53;;;;;;;4.27;3.63;;;;;;;2.31;84.04;100846.19;5045007;28;20271;-77
2021/05/03 02:09:19;;;;;;;3.67;3.33;;;;;;;2.38;84.29;100846.34;5045306;28;20212;-76
2021/05/03 02:11:45;;;;;;;3.80;3.50;;;;;;;2.35;84.43;100853.13;5045158;28;20598;-75
2021/05/03 02:14:12;;;;;;;5.47;3.40;;;;;;;2.31;83.84;100846.19;5044615;28;20219;-74
2021/05/03 02:16:38;;;;;;;3.53;3.23;;;;;;;2.36;84.63;100853.19;5045063;28;20321;-76
2021/05/03 02:19:04;;;;;;;4.20;3.80;;;;;;;2.38;84.10;100855.78;5044619;28;20324;-76
2021/05/03 02:21:30;;;;;;;3.57;3.20;;;;;;;2.33;83.68;100850.53;5044602;28;20212;-76
2021/05/03 02:23:56;;;;;;;3.93;3.10;;;;;;;2.43;84.18;100846.44;5044926;28;20260;-76
2021/05/03 02:26:22;;;;;;;3.97;3.57;;;;;;;2.43;83.01;100850.72;5044019;28;20441;-76
2021/05/03 02:28:50;;;;;;;3.63;2.77;;;;;;;2.47;83.25;100847.38;5044850;28;20205;-77
2021/05/03 02:31:17;;;;;;;4.03;3.53;;;;;;;2.50;83.68;100855.19;5044816;28;20213;-76
2021/05/03 02:33:42;;;;;;;3.83;3.53;;;;;;;2.42;83.44;100851.56;5044485;28;20244;-76
2021/05/03 02:36:09;;;;;;;4.17;3.77;;;;;;;2.36;83.53;100855.75;5044633;28;20209;-75
2021/05/03 02:38:35;;;;;;;3.53;3.23;;;;;;;2.45;83.15;100862.78;5044449;28;20243;-76
2021/05/03 02:41:00;;;;;;;6.03;4.10;;;;;;;2.47;82.93;100860.25;5044561;28;20300;-76
2021/05/03 02:43:26;;;;;;;5.63;4.00;;;;;;;2.52;82.52;100863.81;5044813;28;20198;-77
2021/05/03 02:45:52;;;;;;;4.40;4.00;;;;;;;2.49;82.75;100869.75;5044146;28;20212;-76
2021/05/03 02:48:19;;;;;;;3.83;3.53;;;;;;;2.49;81.79;100868.88;5043028;28;20662;-75
2021/05/03 02:50:45;;;;;;;4.30;3.90;;;;;;;2.48;82.58;100873.19;5044181;28;20212;-76
2021/05/03 02:53:11;;;;;;;4.37;4.07;;;;;;;2.51;81.75;100867.22;5043586;28;20766;-78
2021/05/03 02:55:37;;;;;;;3.87;3.57;;;;;;;2.50;81.98;100870.66;5044350;28;20213;-74
2021/05/03 02:58:03;;;;;;;4.00;3.57;;;;;;;2.49;81.42;100866.31;5044043;28;20268;-76
2021/05/03 03:00:31;;;;;;;4.07;3.67;;;;;;;2.48;81.91;100875.75;5044185;28;20229;-76
2021/05/03 03:02:58;;;;;;;4.33;3.63;;;;;;;2.43;81.77;100861.91;5043525;28;20209;-75
2021/05/03 03:05:25;;;;;;;3.53;3.23;;;;;;;2.39;81.81;100867.81;5044423;28;20253;-76
2021/05/03 03:07:52;;;;;;;4.97;4.47;;;;;;;2.34;82.56;100866.88;5043296;28;20318;-76
2021/05/03 03:10:18;;;;;;;3.70;3.40;;;;;;;2.35;82.32;100868.59;5043870;28;20208;-75
2021/05/03 03:12:45;;;;;;;5.93;3.97;;;;;;;2.31;82.18;100870.22;5043645;28;20213;-76
2021/05/03 03:15:14;;;;;;;5.03;3.87;;;;;;;2.32;81.97;100869.41;5043634;28;20328;-75
2021/05/03 03:17:40;;;;;;;3.77;3.43;;;;;;;2.27;82.18;100875.28;5043599;28;20525;-77
2021/05/03 03:20:07;;;;;;;6.13;3.83;;;;;;;2.28;82.44;100871.88;5042920;28;20252;-77
2021/05/03 03:22:34;;;;;;;3.93;3.40;;;;;;;2.29;82.22;100877.06;5043797;28;20248;-77
2021/05/03 03:25:00;;;;;;;4.40;4.00;;;;;;;2.30;81.50;100878.81;5043713;28;20209;-76
2021/05/03 03:27:26;;;;;;;3.73;3.47;;;;;;;2.27;81.27;100873.56;5043170;28;20707;-75
2021/05/03 03:29:52;;;;;;;3.87;3.57;;;;;;;2.26;81.99;100876.13;5044709;28;20212;-77
2021/05/03 03:32:17;;;;;;;4.20;3.77;;;;;;;2.24;81.47;100880.38;5043527;28;20213;-76
2021/05/03 03:34:43;;;;;;;6.10;3.67;;;;;;;2.23;81.62;100882.06;5043396;28;20215;-77
2021/05/03 03:37:09;;;;;;;3.60;3.30;;;;;;;2.24;81.95;100886.41;5042944;28;20234;-76
2021/05/03 03:39:36;;;;;;;6.93;3.70;;;;;;;2.16;82.00;100878.50;5042240;28;20793;-75
2021/05/03 03:42:02;;;;;;;3.90;3.60;;;;;;;2.18;82.47;100879.41;5044330;28;20202;-77
2021/05/03 03:44:28;;;;;;;3.80;3.60;;;;;;;2.18;81.72;100881.97;5042547;28;20212;-77
2021/05/03 03:46:53;;;;;;;4.37;3.93;;;;;;;2.11;82.58;100882.66;5042928;28;20233;-75
2021/05/03 03:49:19;;;;;;;4.07;3.77;;;;;;;2.19;82.87;100888.00;5043400;28;20683;-77
2021/05/03 03:51:45;;;;;;;4.40;4.03;;;;;;;2.19;82.95;100890.56;5043051;28;20553;-75
2021/05/03 03:54:11;;;;;;;6.80;3.87;;;;;;;2.17;82.71;100880.22;5043783;28;20251;-77
2021/05/03 03:56:38;;;;;;;4.20;3.80;;;;;;;2.16;82.84;100893.06;5043007;28;20319;-77
2021/05/03 03:59:06;;;;;;;4.53;3.53;;;;;;;2.19;82.45;100882.84;5042997;28;20530;-76
2021/05/03 04:01:32;;;;;;;5.60;3.80;;;;;;;2.18;83.18;100881.09;5043910;28;20228;-78
2021/05/03 04:04:02;;;;;;;4.17;3.87;;;;;;;2.24;81.72;100882.94;5043333;28;20204;-77
2021/05/03 04:06:36;;;;;;;6.30;4.53;;;;;;;2.26;82.78;100884.72;5043582;28;20263;-75
2021/05/03 04:09:08;;;;;;;4.50;4.10;;;;;;;2.28;83.00;100877.00;5043086;28;20706;-75
2021/05/03 04:11:46;;;;;;;4.57;4.10;;;;;;;2.25;81.98;100887.28;5043103;28;20211;-76
2021/05/03 04:23:04;;;;;;;5.03;4.00;;;;;;;2.35;82.95;100889.19;5000308;28;20224;-75
2021/05/03 04:25:34;;;;;;;5.00;4.60;;;;;;;2.41;82.95;100904.78;5031895;28;20201;-76
2021/05/03 04:28:01;;;;;;;4.70;4.30;;;;;;;2.43;83.30;100895.38;5043327;28;20228;-76
2021/05/03 04:30:27;;;;;;;5.47;4.97;;;;;;;2.34;82.99;100897.78;5043804;28;20208;-77
2021/05/03 04:32:53;;;;;;;8.10;5.10;;;;;;;2.37;83.39;100897.84;5042542;28;20209;-75
2021/05/03 04:35:19;;;;;;;4.70;4.37;;;;;;;2.49;83.75;100904.97;5043715;28;20213;-76
2021/05/03 04:37:45;;;;;;;5.90;4.70;;;;;;;2.61;83.90;100909.50;5042835;28;20735;-76
2021/05/03 04:40:12;;;;;;;6.00;5.20;;;;;;;2.66;82.86;100906.19;5043838;28;20256;-75
2021/05/03 04:42:39;;;;;;;5.67;5.07;;;;;;;2.76;82.56;100912.41;5042955;28;20248;-74
2021/05/03 04:45:06;;;;;;;6.17;5.57;;;;;;;2.65;83.36;100907.00;5042716;28;20205;-77
2021/05/03 04:47:32;;;;;;;4.43;4.13;;;;;;;2.76;82.85;100909.84;5041728;28;20259;-75
2021/05/03 04:49:59;;;;;;;6.03;5.27;;;;;;;2.86;82.65;100906.59;5043746;28;20241;-77
2021/05/03 04:52:25;;;;;;;4.67;4.27;;;;;;;2.99;82.04;100907.69;5046631;28;20216;-76
2021/05/03 04:54:50;;;;;;;5.40;4.90;;;;;;;2.76;82.38;100917.56;5046271;28;20254;-75
2021/05/03 04:57:16;;;;;;;5.40;4.93;;;;;;;2.75;83.42;100913.22;5046520;28;20297;-76
2021/05/03 04:59:42;;;;;;;6.70;5.10;;;;;;;2.85;83.19;100919.44;5046114;28;20643;-75
2021/05/03 05:02:08;;;;;;;7.00;5.23;;;;;;;2.94;82.93;100919.66;5046605;28;20207;-75
2021/05/03 05:04:35;;;;;;;5.77;5.13;;;;;;;3.05;83.41;100925.00;5046177;28;20209;-76
2021/05/03 05:07:01;;;;;;;5.57;5.07;;;;;;;2.99;83.16;100925.75;5046328;28;21016;-76
2021/05/03 05:09:27;;;;;;;5.93;5.33;;;;;;;3.05;83.61;100923.28;5046307;28;20201;-77
2021/05/03 05:11:53;;;;;;;5.60;5.20;;;;;;;3.13;83.65;100923.44;5044782;28;20213;-75
2021/05/03 05:14:19;;;;;;;6.30;5.80;;;;;;;3.18;83.48;100917.53;5043871;28;20202;-76
2021/05/03 05:16:45;;;;;;;6.00;5.50;;;;;;;3.24;83.75;100914.19;5046856;28;20241;-76
2021/05/03 05:19:11;;;;;;;5.57;5.07;;;;;;;3.33;83.25;100921.22;5045975;28;20670;-75
2021/05/03 05:21:37;;;;;;;6.27;5.77;;;;;;;3.34;83.33;100920.41;5046598;28;20402;-75
2021/05/03 05:24:05;;;;;;;5.90;5.40;;;;;;;3.41;83.23;100929.13;5045978;28;20236;-76
2021/05/03 05:26:31;;;;;;;6.20;5.13;;;;;;;3.53;83.64;100916.44;5045951;28;20597;-74
2021/05/03 05:28:57;;;;;;;6.67;6.13;;;;;;;3.58;83.11;100920.81;5046814;28;20209;-76
2021/05/03 05:31:23;;;;;;;6.30;5.73;;;;;;;3.66;83.10;100923.53;5046061;28;20376;-75
2021/05/03 05:33:48;;;;;;;5.63;5.07;;;;;;;3.74;82.05;100919.38;5046239;28;20567;-75
2021/05/03 05:36:14;;;;;;;6.20;5.27;;;;;;;3.84;82.13;100927.28;5046373;28;20222;-77
2021/05/03 05:38:41;;;;;;;6.17;5.67;;;;;;;3.93;81.74;100922.28;5046145;28;20212;-74
2021/05/03 05:41:07;;;;;;;5.53;5.13;;;;;;;3.74;81.09;100932.28;5046342;28;20209;-76
2021/05/03 05:43:33;;;;;;;6.77;6.07;;;;;;;3.89;81.32;100933.41;5044601;28;20206;-76
2021/05/03 05:45:59;;;;;;;6.13;5.53;;;;;;;3.94;81.03;100927.47;5044892;28;20573;-75
2021/05/03 05:48:25;;;;;;;6.43;5.80;;;;;;;4.05;81.15;100924.19;5044864;28;20361;-76
2021/05/03 05:50:50;;;;;;;5.50;5.00;;;;;;;4.14;81.46;100921.72;5045592;28;20205;-75
2021/05/03 05:53:16;;;;;;;6.67;6.07;;;;;;;4.13;80.44;100922.59;5046176;28;20238;-77
2021/05/03 05:55:43;;;;;;;5.83;5.40;;;;;;;4.24;81.14;100914.97;5044818;28;20587;-75
2021/05/03 05:58:09;;;;;;;5.97;5.17;;;;;;;4.12;80.43;100913.97;5045656;28;20256;-74
2021/05/03 06:00:35;;;;;;;6.60;6.00;;;;;;;4.20;79.99;100919.22;5045712;28;20239;-75
2021/05/03 06:03:02;;;;;;;6.40;5.60;;;;;;;4.27;79.78;100915.91;5044689;28;20225;-75
2021/05/03 06:05:28;;;;;;;5.93;5.10;;;;;;;4.45;79.77;100917.00;5045506;28;20496;-74
2021/05/03 06:07:53;;;;;;;6.13;5.63;;;;;;;4.68;79.53;100912.16;5045350;28;20228;-76
2021/05/03 06:10:19;;;;;;;5.63;5.10;;;;;;;4.82;77.92;100912.31;5045554;28;20205;-77
2021/05/03 06:12:46;;;;;;;5.30;4.90;;;;;;;4.78;77.25;100921.75;5044747;28;20671;-75
2021/05/03 06:15:12;;;;;;;4.70;4.40;;;;;;;4.88;77.95;100923.59;5045819;28;20209;-75
2021/05/03 06:17:38;;;;;;;5.57;5.07;;;;;;;4.96;78.41;100928.88;5045509;28;20504;-76
2021/05/03 06:20:05;;;;;;;5.53;5.03;;;;;;;4.88;78.08;100925.34;5044294;28;20225;-77
2021/05/03 06:22:32;;;;;;;6.83;5.40;;;;;;;4.86;77.79;100924.44;5045253;28;20212;-75
2021/05/03 06:24:59;;;;;;;5.43;4.93;;;;;;;4.88;77.85;100927.91;5045077;28;20204;-74
2021/05/03 06:27:25;;;;;;;5.73;5.23;;;;;;;4.97;78.10;100923.72;5044649;28;20264;-74
2021/05/03 06:29:52;;;;;;;5.20;4.67;;;;;;;5.06;77.90;100917.78;5045287;28;20201;-76
2021/05/03 06:32:18;;;;;;;4.53;4.23;;;;;;;5.13;76.60;100917.00;5044560;28;20206;-77
2021/05/03 06:34:44;;;;;;;5.50;5.10;;;;;;;5.17;76.49;100917.88;5045046;28;20633;-75
2021/05/03 06:37:10;;;;;;;4.80;4.50;;;;;;;5.21;76.11;100919.66;5043708;28;20268;-75
2021/05/03 06:39:37;;;;;;;5.03;4.73;;;;;;;5.33;76.70;100929.25;5044854;28;20233;-75
2021/05/03 06:42:03;;;;;;;5.87;4.70;;;;;;;5.29;74.74;100920.63;5045023;28;20215;-75
2021/05/03 06:44:29;;;;;;;4.67;4.27;;;;;;;5.08;75.61;100921.25;5044441;28;20209;-75
2021/05/03 06:46:58;;;;;;;5.30;4.90;;;;;;;5.15;76.09;100930.81;5044285;28;20291;-75
2021/05/03 06:49:24;;;;;;;5.77;5.20;;;;;;;5.29;76.33;100932.69;5043226;28;20688;-74
2021/05/03 06:51:50;;;;;;;4.80;4.30;;;;;;;5.23;75.27;100924.84;5044328;28;20216;-76
2021/05/03 06:54:16;;;;;;;4.53;4.13;;;;;;;5.34;75.69;100939.63;5044704;28;20649;-75
2021/05/03 06:56:42;;;;;;;5.47;4.97;;;;;;;5.57;77.02;100931.25;5044353;28;20408;-77
2021/05/03 06:59:07;;;;;;;5.83;4.60;;;;;;;5.69;75.38;100931.38;5044746;28;20723;-76
2021/05/03 07:01:33;;;;;;;4.50;4.10;;;;;;;5.79;75.33;100929.72;5044887;28;20291;-76
2021/05/03 07:04:00;;;;;;;5.30;4.77;;;;;;;5.81;74.57;100932.31;5044352;28;20672;-76
2021/05/03 07:06:26;;;;;;;4.80;4.30;;;;;;;5.82;74.04;100928.88;5044073;28;20233;-77
2021/05/03 07:08:52;;;;;;;4.77;4.37;;;;;;;5.84;74.09;100935.78;5043924;28;20205;-74
2021/05/03 07:11:20;;;;;;;5.20;4.80;;;;;;;5.68;74.19;100932.19;5045334;28;20205;-75
2021/05/03 07:13:47;;;;;;;4.53;4.13;;;;;;;5.84;75.95;100940.97;5041725;28;20209;-76
2021/05/03 07:16:12;;;;;;;5.20;4.80;;;;;;;5.85;75.55;100937.53;5043739;28;20691;-75
2021/05/03 07:18:39;;;;;;;4.80;4.40;;;;;;;5.88;75.23;100947.91;5043331;28;20210;-75
2021/05/03 07:21:06;;;;;;;5.27;4.80;;;;;;;5.74;75.46;100955.56;5044793;28;20229;-76
2021/05/03 07:23:32;;;;;;;5.53;5.03;;;;;;;5.70;77.14;100955.53;5043790;28;20248;-74
2021/05/03 07:25:59;;;;;;;5.10;4.70;;;;;;;5.61;76.91;100960.63;5044094;28;20751;-74
2021/05/03 07:28:25;;;;;;;5.13;4.73;;;;;;;5.48;77.60;100959.63;5044328;28;20220;-77
2021/05/03 07:30:57;;;;;;;5.47;4.97;;;;;;;5.46;78.33;100953.56;5043741;28;20301;-77
2021/05/03 07:33:23;;;;;;;5.30;4.90;;;;;;;5.43;78.50;100950.94;5042842;28;20650;-75
2021/05/03 07:35:49;;;;;;;7.73;5.77;;;;;;;5.42;78.80;100947.50;5044120;28;20205;-76
2021/05/03 07:38:16;;;;;;;5.30;4.90;;;;;;;5.53;79.22;100947.59;5044481;28;20335;-76
2021/05/03 07:40:42;;;;;;;5.83;5.33;;;;;;;5.42;78.22;100951.81;5044215;28;20252;-75
2021/05/03 07:43:07;;;;;;;5.27;4.87;;;;;;;5.66;78.84;100943.41;5044010;28;20208;-76
2021/05/03 07:45:33;;;;;;;5.97;5.47;;;;;;;5.58;78.21;100946.78;5044194;28;20267;-75
2021/05/03 07:47:59;;;;;;;5.70;5.20;;;;;;;5.69;78.38;100944.31;5043551;28;20264;-75
2021/05/03 07:50:25;;;;;;;5.70;5.30;;;;;;;5.71;79.17;100940.00;5043739;28;20209;-75
2021/05/03 07:52:54;;;;;;;5.70;5.30;;;;;;;5.78;77.79;100936.59;5043957;28;20255;-74
2021/05/03 07:55:21;;;;;;;5.53;5.03;;;;;;;6.01;78.50;100937.72;5043439;28;20555;-74
2021/05/03 07:57:47;;;;;;;5.47;5.00;;;;;;;6.05;77.09;100944.66;5043800;28;20217;-76
2021/05/03 08:00:14;;;;;;;5.60;5.10;;;;;;;6.16;76.99;100935.22;5043737;28;20239;-76
2021/05/03 08:02:40;;;;;;;5.67;5.10;;;;;;;6.18;77.05;100937.81;5042998;28;20237;-75
2021/05/03 08:05:07;;;;;;;4.33;3.93;;;;;;;5.84;75.22;100930.63;5044104;28;20221;-76
2021/05/03 08:07:33;;;;;;;4.90;4.53;;;;;;;5.89;76.34;100923.75;5042964;28;20239;-75
2021/05/03 08:09:59;;;;;;;4.17;3.87;;;;;;;5.91;74.81;100927.22;5044253;28;20205;-77
2021/05/03 08:12:28;;;;;;;4.50;4.20;;;;;;;6.06;74.79;100926.50;5042664;28;20753;-74
2021/05/03 08:14:54;;;;;;;4.70;4.30;;;;;;;5.87;73.90;100927.19;5042468;28;20209;-76
2021/05/03 08:17:20;;;;;;;6.00;5.47;;;;;;;5.85;75.41;100927.19;5043147;28;21159;-75
2021/05/03 08:19:46;;;;;;;5.53;4.97;;;;;;;6.00;74.79;100921.25;5043765;28;20228;-75
2021/05/03 08:22:13;;;;;;;4.77;4.47;;;;;;;6.15;75.19;100923.13;5043695;28;20206;-75
2021/05/03 08:24:39;;;;;;;5.37;4.70;;;;;;;6.25;74.84;100918.88;5043519;28;20244;-74
2021/05/03 08:27:06;;;;;;;9.13;5.43;;;;;;;6.37;73.70;100916.34;5047473;28;20233;-76
2021/05/03 08:29:33;;;;;;;4.93;4.53;;;;;;;6.47;74.11;100920.72;5046907;28;20694;-75
2021/05/03 08:31:59;;;;;;;5.27;4.87;;;;;;;6.51;72.34;100911.22;5047653;28;20229;-75
2021/05/03 08:34:26;;;;;;;4.53;4.20;;;;;;;6.53;71.19;100914.69;5047402;28;20212;-75
2021/05/03 08:36:55;;;;;;;5.27;4.87;;;;;;;6.65;71.47;100924.28;5046461;28;20278;-76
2021/05/03 08:39:22;;;;;;;5.27;4.87;;;;;;;6.83;70.60;100913.13;5045583;28;20236;-76
2021/05/03 08:41:48;;;;;;;5.77;5.27;;;;;;;6.98;69.94;100915.78;5046294;28;20978;-74
2021/05/03 08:44:14;;;;;;;6.23;4.80;;;;;;;7.06;68.77;100913.22;5046309;28;20236;-76
2021/05/03 08:46:43;;;;;;;6.10;4.93;;;;;;;6.99;68.28;100914.91;5046644;28;20966;-76
2021/05/03 08:49:17;;;;;;;5.43;5.03;;;;;;;7.03;68.03;100913.19;5046683;28;20215;-76
2021/05/03 08:51:47;;;;;;;5.70;5.20;;;;;;;7.16;69.13;100904.56;5046868;28;20653;-77
2021/05/03 08:54:20;;;;;;;6.10;5.50;;;;;;;7.16;69.22;100899.38;5046040;28;20207;-77
2021/05/03 08:56:46;;;;;;;5.40;4.90;;;;;;;7.26;67.69;100884.69;5045539;28;20785;-75
2021/05/03 08:59:12;;;;;;;5.50;5.00;;;;;;;7.32;67.67;100889.91;5047539;28;20209;-75
2021/05/03 09:01:39;;;;;;;5.40;5.00;;;;;;;7.20;67.40;100882.09;5046470;28;20209;-76
2021/05/03 09:04:06;;;;;;;5.37;4.97;;;;;;;7.36;68.61;100868.25;5046093;28;20216;-75
2021/05/03 09:06:32;;;;;;;4.60;4.20;;;;;;;7.55;66.48;100859.63;5046100;28;20221;-76
2021/05/03 09:09:04;;;;;;;5.20;4.67;;;;;;;7.68;66.63;100857.00;5046887;28;21186;-75
2021/05/03 09:11:30;;;;;;;4.90;4.60;;;;;;;7.86;68.28;100853.53;5047199;28;20199;-76
2021/05/03 09:14:07;;;;;;;4.23;3.93;;;;;;;7.88;63.17;100847.47;5046491;28;20202;-77
2021/05/03 09:16:33;;;;;;;4.50;4.17;;;;;;;8.06;65.45;100856.97;5045919;28;20998;-74
2021/05/03 09:19:01;;;;;;;5.63;4.67;;;;;;;8.15;64.65;100858.69;5047264;28;20203;-76
2021/05/03 09:21:30;;;;;;;5.73;4.83;;;;;;;8.31;64.54;100854.31;5046562;28;20255;-76
2021/05/03 09:24:01;;;;;;;4.83;4.30;;;;;;;8.46;65.16;100848.22;5045832;28;20205;-76
2021/05/03 09:26:43;;;;;;;38.53;34.40;;;;;;;8.51;62.95;100851.69;5046163;28;20683;-74
2021/05/03 09:29:27;;;;;;;6.30;5.80;;;;;;;8.68;62.60;100841.19;5046512;28;20480;-76
2021/05/03 09:31:58;;;;;;;5.43;4.93;;;;;;;8.72;63.18;100837.69;5045856;28;20206;-77
2021/05/03 09:34:29;;;;;;;4.77;4.37;;;;;;;8.76;61.04;100839.44;5046830;28;20205;-76
2021/05/03 09:37:15;;;;;;;4.50;4.20;;;;;;;8.82;59.51;100823.78;5044770;28;20785;-77
2021/05/03 09:39:41;;;;;;;4.97;3.90;;;;;;;9.02;61.38;100827.97;5046671;28;20732;-75
2021/05/03 09:42:07;;;;;;;4.97;4.67;;;;;;;9.17;61.92;100814.88;5045620;28;20208;-75
2021/05/03 09:44:33;;;;;;;4.27;3.97;;;;;;;9.18;59.48;100813.13;5046269;28;20916;-77
2021/05/03 09:46:58;;;;;;;4.40;4.00;;;;;;;9.40;60.43;100809.50;5046310;28;20747;-75
2021/05/03 09:49:24;;;;;;;5.30;4.80;;;;;;;9.41;56.89;100807.75;5044891;28;20331;-74
2021/05/03 09:51:52;;;;;;;3.90;3.60;;;;;;;9.50;57.68;100810.28;5046931;28;20210;-76
2021/05/03 09:54:22;;;;;;;4.10;3.80;;;;;;;9.31;57.38;100810.41;5045318;28;20198;-76
2021/05/03 09:56:51;;;;;;;3.57;3.37;;;;;;;9.56;57.78;100807.63;5046000;28;20238;-76
2021/05/03 09:59:31;;;;;;;4.20;3.50;;;;;;;9.63;57.73;100800.59;5045132;28;20229;-76
2021/05/03 10:02:05;;;;;;;3.57;3.37;;;;;;;9.62;57.78;100801.50;5044303;28;20206;-75
2021/05/03 10:04:33;;;;;;;4.00;3.70;;;;;;;9.61;57.25;100795.38;5044831;28;20291;-78
2021/05/03 10:06:59;;;;;;;4.23;3.77;;;;;;;9.79;57.63;100793.50;5045148;28;20227;-76
2021/05/03 10:09:27;;;;;;;4.03;3.73;;;;;;;9.86;56.58;100793.41;5045689;28;20208;-75
2021/05/03 10:11:53;;;;;;;3.23;3.03;;;;;;;9.73;52.27;100784.88;5045599;28;20258;-75
2021/05/03 10:14:20;;;;;;;3.67;3.37;;;;;;;9.58;52.20;100778.94;5044148;28;20250;-76
2021/05/03 10:16:47;;;;;;;3.30;2.83;;;;;;;9.62;54.20;100789.31;5045039;28;20720;-77
2021/05/03 10:19:18;;;;;;;3.00;2.80;;;;;;;9.60;52.96;100779.78;5044660;28;20233;-77
2021/05/03 10:21:44;;;;;;;3.40;3.00;;;;;;;9.51;53.18;100781.59;5045421;28;20256;-76
2021/05/03 10:24:12;;;;;;;3.30;3.10;;;;;;;9.61;53.29;100782.34;5044744;28;20764;-76
2021/05/03 10:26:40;;;;;;;2.93;2.73;;;;;;;9.74;54.47;100781.38;5045729;28;21233;-78
2021/05/03 10:29:06;;;;;;;3.70;3.40;;;;;;;9.87;53.61;100778.63;5044691;28;20212;-78
2021/05/03 10:31:57;;;;;;;3.43;3.17;;;;;;;9.81;54.05;100779.59;5044078;28;20202;-75
2021/05/03 10:34:37;;;;;;;3.60;3.40;;;;;;;9.85;49.13;100767.34;5044958;28;20258;-76
2021/05/03 10:37:03;;;;;;;4.07;3.77;;;;;;;10.02;50.00;100778.47;5044301;28;20588;-78
2021/05/03 10:39:37;;;;;;;4.03;3.67;;;;;;;10.00;51.18;100775.03;5045455;28;20214;-76
2021/05/03 10:42:06;;;;;;;4.33;4.03;;;;;;;10.06;48.82;100767.13;5045434;28;20215;-79
2021/05/03 10:44:33;;;;;;;3.77;3.47;;;;;;;10.18;49.78;100765.25;5044536;28;20210;-78
2021/05/03 10:47:02;;;;;;;4.07;3.77;;;;;;;10.19;50.79;100760.03;5044249;28;20234;-77
2021/05/03 10:49:40;;;;;;;3.93;3.73;;;;;;;10.07;51.32;100760.19;5044116;28;20198;-77
2021/05/03 10:52:11;;;;;;;5.13;4.37;;;;;;;10.00;50.95;100759.38;5044189;28;20207;-76
2021/05/03 10:54:44;;;;;;;4.63;4.17;;;;;;;10.03;51.16;100755.84;5042413;28;20266;-77
2021/05/03 10:57:30;;;;;;;3.73;3.53;;;;;;;10.23;51.36;100747.81;5044300;28;20328;-76
2021/05/03 10:59:58;;;;;;;5.23;4.73;;;;;;;10.49;51.65;100750.13;5043550;28;20270;-77
2021/05/03 11:02:25;;;;;;;4.33;4.00;;;;;;;10.42;48.10;100748.47;5043577;28;20198;-78
2021/05/03 11:05:13;;;;;;;4.63;4.13;;;;;;;10.46;47.93;100743.16;5043108;28;20462;-76
2021/05/03 11:08:28;;;;;;;5.23;4.03;;;;;;;10.58;49.01;100733.44;5043580;28;20324;-75
2021/05/03 11:11:10;;;;;;;4.50;4.10;;;;;;;10.87;48.84;100727.81;5044639;28;20291;-76
2021/05/03 11:13:41;;;;;;;3.60;3.30;;;;;;;10.97;49.01;100729.38;5041281;28;20583;-76
2021/05/03 11:16:40;;;;;;;4.63;4.22;;;;;;;10.90;46.05;100733.84;5043909;28;20435;-77
2021/05/03 11:19:34;;;;;;;4.63;4.33;;;;;;;10.82;46.64;100727.00;5044575;28;20843;-78
2021/05/03 11:22:00;;;;;;;4.50;4.10;;;;;;;10.95;47.88;100718.09;5045431;28;20202;-76
2021/05/03 11:24:31;;;;;;;3.43;3.10;;;;;;;10.98;45.06;100715.44;5044175;28;20582;-77
2021/05/03 11:27:00;;;;;;;3.43;3.23;;;;;;;11.13;45.27;100712.56;5043886;28;20222;-76
2021/05/03 11:29:34;;;;;;;3.87;3.57;;;;;;;11.01;44.10;100718.00;5044572;28;20287;-78
2021/05/03 11:32:00;;;;;;;4.57;4.10;;;;;;;11.10;44.71;100723.06;5044978;28;20688;-77
2021/05/03 11:34:30;;;;;;;4.30;3.93;;;;;;;11.45;44.98;100724.19;5045043;28;20329;-78
2021/05/03 11:36:59;;;;;;;3.57;3.37;;;;;;;11.71;43.33;100722.84;5044214;28;20325;-77
2021/05/03 11:39:38;;;;;;;4.20;3.90;;;;;;;11.48;40.96;100711.09;5043828;28;20307;-77
2021/05/03 11:42:36;;;;;;;4.07;3.50;;;;;;;11.67;42.65;100708.13;5043746;28;20206;-77
2021/05/03 11:45:05;;;;;;;3.70;3.50;;;;;;;12.18;40.73;100704.53;5043870;28;20286;-78